Time;durP1;ratioP1;P1;durP2;ratioP2;P2;SDS_P1;SDS_P2;PMS_P1;PMS_P2;Temp;Humidity;BMP_temperature;BMP_pressure;BME280_temperature;BME280_humidity;BME280_pressure;Samples;Min_cycle;Max_cycle;Signal;HPM_P1;HPM_P2
2023/01/26 00:04:46;;;;;;;30.67;19.17;;;-0.40;1.00;;;;;;10478182;28;20276;-79
2023/01/26 00:10:08;;;;;;;29.10;16.90;;;-0.40;1.00;;;;;;10478780;28;20191;-79
2023/01/26 00:15:32;;;;;;;33.63;19.40;;;-0.40;1.00;;;;;;10463646;28;20237;-79
2023/01/26 00:20:57;;;;;;;26.43;17.20;;;-0.50;1.00;;;;;;10463915;28;20480;-79
2023/01/26 00:26:21;;;;;;;31.40;17.97;;;-0.40;1.00;;;;;;10475707;28;20397;-79
2023/01/26 00:31:42;;;;;;;29.37;18.93;;;-0.40;1.00;;;;;;10472423;28;20207;-78
2023/01/26 00:37:04;;;;;;;31.77;19.53;;;-0.40;1.00;;;;;;10490788;28;20228;-79
2023/01/26 00:42:25;;;;;;;31.17;18.53;;;-0.40;1.00;;;;;;10506319;28;20205;-80
2023/01/26 00:47:46;;;;;;;33.20;19.27;;;-0.40;1.00;;;;;;10509255;28;20267;-75
2023/01/26 00:53:08;;;;;;;33.73;19.93;;;-0.40;1.00;;;;;;10518390;28;20237;-77
2023/01/26 00:58:29;;;;;;;33.33;19.67;;;-0.40;1.00;;;;;;10493493;28;20244;-76
2023/01/26 01:03:51;;;;;;;33.83;19.37;;;-0.40;1.00;;;;;;10483275;28;20423;-77
2023/01/26 01:09:12;;;;;;;32.63;19.63;;;-0.40;1.00;;;;;;10518578;28;20382;-78
2023/01/26 01:14:33;;;;;;;31.77;19.17;;;-0.40;1.00;;;;;;10499378;28;20202;-78
2023/01/26 01:19:54;;;;;;;33.23;19.90;;;-0.30;1.00;;;;;;10476498;28;20201;-79
2023/01/26 01:25:15;;;;;;;32.87;19.03;;;-0.30;1.00;;;;;;10474480;28;20245;-80
2023/01/26 01:30:37;;;;;;;32.00;20.07;;;-0.30;1.00;;;;;;10483014;28;20208;-79
2023/01/26 01:35:59;;;;;;;33.10;19.57;;;-0.30;1.00;;;;;;10491922;28;20452;-79
2023/01/26 01:41:23;;;;;;;31.50;18.93;;;-0.20;1.00;;;;;;10539798;28;20187;-78
2023/01/26 01:46:55;;;;;;;31.57;18.63;;;-0.20;1.00;;;;;;10472628;28;20220;-79
2023/01/26 01:52:30;;;;;;;31.40;19.67;;;-0.20;1.00;;;;;;10483021;28;20260;-79
2023/01/26 01:57:57;;;;;;;36.63;21.63;;;-0.30;1.00;;;;;;10484151;28;20418;-79
2023/01/26 02:03:20;;;;;;;30.53;19.30;;;-0.30;1.00;;;;;;10482967;28;20497;-79
2023/01/26 02:08:50;;;;;;;32.07;19.17;;;-0.30;1.00;;;;;;10483738;28;20242;-79
2023/01/26 02:14:14;;;;;;;30.90;19.47;;;-0.30;1.00;;;;;;10482498;28;20198;-78
2023/01/26 02:19:54;;;;;;;29.37;18.57;;;-0.30;1.00;;;;;;10481645;28;20241;-79
2023/01/26 02:25:29;;;;;;;31.87;19.57;;;-0.20;1.00;;;;;;10481572;28;20195;-78
2023/01/26 02:30:52;;;;;;;30.97;19.80;;;-0.20;1.00;;;;;;10480471;28;20206;-79
2023/01/26 02:36:24;;;;;;;27.80;18.47;;;-0.20;1.00;;;;;;10487961;28;20226;-79
2023/01/26 02:47:26;;;;;;;40.70;22.80;;;-0.20;1.00;;;;;;10440137;28;20199;-79
2023/01/26 02:52:48;;;;;;;43.50;24.00;;;-0.10;1.00;;;;;;10429451;28;20227;-79
2023/01/26 02:58:12;;;;;;;39.60;22.23;;;-0.20;1.00;;;;;;10439588;28;20245;-79
2023/01/26 03:03:43;;;;;;;37.73;21.63;;;-0.20;1.00;;;;;;10443722;28;20197;-79
2023/01/26 03:09:07;;;;;;;37.43;20.90;;;-0.20;1.00;;;;;;10480793;28;20194;-78
2023/01/26 03:14:29;;;;;;;36.37;20.67;;;-0.20;1.00;;;;;;10481182;28;20231;-78
2023/01/26 03:31:10;;;;;;;41.80;22.40;;;-0.20;1.00;;;;;;10453033;28;20570;-77
2023/01/26 03:36:32;;;;;;;42.30;22.17;;;-0.20;1.00;;;;;;10491756;28;20220;-78
2023/01/26 03:59:11;;;;;;;36.03;19.80;;;-0.10;1.00;;;;;;10464942;28;20298;-76
2023/01/26 04:10:18;;;;;;;38.50;21.07;;;-0.20;1.00;;;;;;10464078;28;20197;-79
2023/01/26 04:21:34;;;;;;;37.17;22.00;;;-0.20;1.00;;;;;;10440646;28;20553;-77
2023/01/26 04:27:04;;;;;;;39.53;20.13;;;-0.20;1.00;;;;;;10457607;28;20374;-78
2023/01/26 04:32:30;;;;;;;37.27;20.20;;;-0.10;1.00;;;;;;10490197;28;20208;-79
2023/01/26 04:37:51;;;;;;;49.33;25.47;;;-0.10;1.00;;;;;;10499600;28;20225;-78
2023/01/26 04:43:12;;;;;;;41.13;21.20;;;-0.10;1.00;;;;;;10519468;28;20244;-78
2023/01/26 04:48:34;;;;;;;40.50;21.77;;;-0.10;1.00;;;;;;10498184;28;20209;-79
2023/01/26 04:53:55;;;;;;;43.40;23.07;;;-0.20;1.00;;;;;;10461651;28;20209;-77
2023/01/26 04:59:17;;;;;;;39.13;21.37;;;-0.10;1.00;;;;;;10477801;28;20517;-79
2023/01/26 05:04:38;;;;;;;43.90;23.60;;;-0.20;1.00;;;;;;10476239;28;20243;-78
2023/01/26 05:10:01;;;;;;;43.20;22.57;;;-0.10;1.00;;;;;;10471805;28;20504;-78
2023/01/26 05:15:35;;;;;;;43.10;23.17;;;-0.10;1.00;;;;;;10491958;28;20218;-78
2023/01/26 05:21:04;;;;;;;47.87;25.83;;;-0.10;1.00;;;;;;10462155;28;20426;-76
2023/01/26 05:26:33;;;;;;;54.17;26.53;;;0.00;1.00;;;;;;10473515;28;20482;-77
2023/01/26 05:31:57;;;;;;;43.80;24.13;;;-0.10;1.00;;;;;;10475923;28;20499;-78
2023/01/26 05:37:19;;;;;;;41.00;22.20;;;-0.10;1.00;;;;;;10493484;28;20221;-77
2023/01/26 05:42:42;;;;;;;42.10;22.73;;;0.00;1.00;;;;;;10459621;28;20200;-76
2023/01/26 05:48:22;;;;;;;44.77;21.90;;;0.00;1.00;;;;;;10475367;28;20192;-77
2023/01/26 05:53:45;;;;;;;38.47;20.93;;;0.00;1.00;;;;;;10473049;28;20271;-78
2023/01/26 05:59:07;;;;;;;39.77;22.03;;;-0.10;1.00;;;;;;10461815;28;20237;-79
2023/01/26 06:04:29;;;;;;;39.43;21.37;;;0.00;1.00;;;;;;10475895;28;20190;-78
2023/01/26 06:09:52;;;;;;;36.40;21.10;;;0.00;1.00;;;;;;10490366;28;20202;-79
2023/01/26 06:15:32;;;;;;;34.73;20.33;;;-0.10;1.00;;;;;;10487982;28;20197;-77
2023/01/26 06:20:59;;;;;;;33.87;19.33;;;-0.20;1.00;;;;;;10512255;28;20234;-78
2023/01/26 06:26:20;;;;;;;36.33;19.13;;;-0.20;1.00;;;;;;10520081;28;20266;-79
2023/01/26 06:31:41;;;;;;;35.87;18.67;;;-0.20;1.00;;;;;;10481088;28;20193;-78
2023/01/26 06:37:04;;;;;;;36.33;19.30;;;-0.20;1.00;;;;;;10471894;28;20224;-78
2023/01/26 06:42:29;;;;;;;35.77;19.40;;;-0.20;1.00;;;;;;10495833;28;20441;-78
2023/01/26 06:47:51;;;;;;;36.97;19.13;;;-0.20;1.00;;;;;;10492376;28;20201;-78
2023/01/26 06:53:28;;;;;;;33.63;18.90;;;-0.10;1.00;;;;;;10444485;28;20226;-78
2023/01/26 06:59:09;;;;;;;41.47;21.97;;;-0.10;1.00;;;;;;10458809;28;20311;-78
2023/01/26 07:04:56;;;;;;;50.43;25.30;;;-0.20;1.00;;;;;;10431965;28;20215;-78
2023/01/26 07:10:18;;;;;;;46.30;25.10;;;-0.10;1.00;;;;;;10436333;28;20232;-79
2023/01/26 07:15:39;;;;;;;53.63;29.17;;;-0.20;1.00;;;;;;10430313;28;20245;-78
2023/01/26 07:21:09;;;;;;;71.73;41.33;;;-0.20;1.00;;;;;;10433730;28;20280;-79
2023/01/26 07:26:30;;;;;;;51.43;29.77;;;-0.30;1.00;;;;;;10395297;28;20218;-78
2023/01/26 07:31:51;;;;;;;50.13;25.90;;;-0.20;1.00;;;;;;10435460;28;20275;-79
2023/01/26 07:37:12;;;;;;;49.53;23.57;;;-0.20;1.00;;;;;;10433680;28;20423;-78
2023/01/26 07:42:33;;;;;;;48.70;24.17;;;-0.20;1.00;;;;;;10477338;28;20501;-78
2023/01/26 07:48:10;;;;;;;47.97;25.77;;;-0.30;1.00;;;;;;10478482;28;20208;-77
2023/01/26 07:53:36;;;;;;;70.90;34.47;;;-0.40;1.00;;;;;;10478972;28;20255;-78
2023/01/26 07:58:57;;;;;;;72.77;34.57;;;-0.40;1.00;;;;;;10472613;28;20612;-78
2023/01/26 08:04:18;;;;;;;64.20;31.10;;;-0.30;1.00;;;;;;10479807;28;20189;-78
2023/01/26 08:09:39;;;;;;;51.60;27.40;;;-0.30;1.00;;;;;;10499150;28;20202;-78
2023/01/26 08:15:00;;;;;;;56.17;28.33;;;-0.20;1.00;;;;;;10497755;28;20204;-78
2023/01/26 08:20:22;;;;;;;42.97;21.97;;;-0.20;1.00;;;;;;10478270;28;20222;-78
2023/01/26 08:25:43;;;;;;;52.03;28.20;;;0.00;1.00;;;;;;10503899;28;20281;-78
2023/01/26 08:31:06;;;;;;;43.77;22.53;;;0.00;1.00;;;;;;10451386;28;20202;-79
2023/01/26 08:36:27;;;;;;;50.37;26.00;;;0.10;1.00;;;;;;10472613;28;20276;-78
2023/01/26 08:41:48;;;;;;;35.70;20.63;;;0.20;1.00;;;;;;10470855;28;21066;-78
2023/01/26 08:47:10;;;;;;;41.20;21.13;;;0.30;1.00;;;;;;10458547;28;20505;-77
2023/01/26 08:52:31;;;;;;;37.37;19.20;;;0.30;1.00;;;;;;10471602;28;20210;-78
2023/01/26 08:57:54;;;;;;;32.60;17.47;;;0.30;1.00;;;;;;10468614;28;20250;-81
2023/01/26 09:03:15;;;;;;;40.60;19.97;;;0.30;1.00;;;;;;10473231;28;20187;-81
2023/01/26 09:08:36;;;;;;;42.50;22.47;;;0.30;1.00;;;;;;10471253;28;20199;-77
2023/01/26 09:13:57;;;;;;;43.17;24.27;;;0.40;1.00;;;;;;10470192;28;20196;-83
2023/01/26 09:19:19;;;;;;;44.37;21.43;;;0.40;1.00;;;;;;10451462;28;20591;-84
2023/01/26 09:24:40;;;;;;;54.30;31.00;;;0.50;1.00;;;;;;10470910;28;20267;-76
2023/01/26 09:30:02;;;;;;;60.83;28.47;;;0.50;1.00;;;;;;10470997;28;20250;-77
2023/01/26 09:35:24;;;;;;;33.40;18.90;;;0.70;1.00;;;;;;10473189;28;20222;-77
2023/01/26 09:41:14;;;;;;;31.97;17.53;;;0.80;1.00;;;;;;10495848;28;20528;-76
2023/01/26 09:47:03;;;;;;;40.87;19.47;;;0.80;1.00;;;;;;10476582;28;20198;-77
2023/01/26 09:52:35;;;;;;;37.47;19.73;;;0.80;1.00;;;;;;10478575;28;20321;-77
2023/01/26 09:58:04;;;;;;;46.53;24.97;;;0.80;1.00;;;;;;10476760;28;20247;-79
2023/01/26 10:03:56;;;;;;;44.03;22.40;;;0.80;1.00;;;;;;10477960;28;20202;-77
2023/01/26 10:09:23;;;;;;;51.30;25.90;;;0.90;1.00;;;;;;10463989;28;20571;-77
2023/01/26 10:14:53;;;;;;;68.03;32.27;;;0.90;1.00;;;;;;10488995;28;20579;-77
2023/01/26 10:20:35;;;;;;;38.27;20.90;;;1.00;1.00;;;;;;10478840;28;20234;-76
2023/01/26 10:26:12;;;;;;;29.57;16.87;;;1.10;1.00;;;;;;10477355;28;20240;-76
2023/01/26 10:31:34;;;;;;;33.87;18.83;;;1.20;1.00;;;;;;10437217;28;20387;-79
2023/01/26 10:37:32;;;;;;;44.27;25.77;;;1.10;1.00;;;;;;10476482;28;20237;-78
2023/01/26 10:42:57;;;;;;;54.93;25.93;;;1.10;1.00;;;;;;10543111;28;20213;-77
2023/01/26 10:48:25;;;;;;;32.80;17.80;;;1.00;1.00;;;;;;10517265;28;20515;-78
2023/01/26 10:53:46;;;;;;;35.63;19.50;;;1.10;1.00;;;;;;10500869;28;20248;-75
2023/01/26 10:59:08;;;;;;;37.10;18.30;;;1.10;1.00;;;;;;10515263;28;20253;-77
2023/01/26 11:04:29;;;;;;;36.63;19.00;;;1.10;1.00;;;;;;10500289;28;20290;-76
2023/01/26 11:09:51;;;;;;;30.47;17.17;;;1.10;1.00;;;;;;10514509;28;20218;-77
2023/01/26 11:15:23;;;;;;;31.47;17.43;;;1.10;1.00;;;;;;10506051;28;20529;-77
2023/01/26 11:21:04;;;;;;;37.17;18.97;;;1.10;1.00;;;;;;10482930;28;20224;-77
2023/01/26 11:26:44;;;;;;;42.63;20.73;;;1.20;1.00;;;;;;10474735;28;20244;-76
2023/01/26 11:32:30;;;;;;;37.20;19.43;;;1.20;1.00;;;;;;10474249;28;20210;-76
2023/01/26 11:37:59;;;;;;;40.87;19.20;;;1.10;1.00;;;;;;10476039;28;20266;-77
2023/01/26 11:43:32;;;;;;;46.17;23.17;;;1.20;1.00;;;;;;10474431;28;20201;-78
2023/01/26 11:49:08;;;;;;;38.67;20.33;;;1.10;1.00;;;;;;10440782;28;20534;-77
2023/01/26 11:54:47;;;;;;;40.57;20.33;;;1.20;1.00;;;;;;10471551;28;20237;-78
2023/01/26 12:00:17;;;;;;;39.10;19.87;;;1.20;1.00;;;;;;10474276;28;20291;-78
2023/01/26 12:05:54;;;;;;;36.73;19.23;;;1.30;1.00;;;;;;10472057;28;20216;-77
2023/01/26 12:11:29;;;;;;;35.70;19.93;;;1.30;1.00;;;;;;10472817;28;20215;-80
2023/01/26 12:16:58;;;;;;;40.17;20.13;;;1.20;1.00;;;;;;10472663;28;20295;-81
2023/01/26 12:22:45;;;;;;;51.63;22.23;;;1.10;1.00;;;;;;10509437;28;20203;-80
2023/01/26 12:28:19;;;;;;;41.83;21.20;;;1.00;1.00;;;;;;10481244;28;20495;-80
2023/01/26 12:33:41;;;;;;;46.33;22.87;;;1.10;1.00;;;;;;10462400;28;20280;-80
2023/01/26 12:39:07;;;;;;;42.90;21.37;;;1.00;1.00;;;;;;10505334;28;20221;-78
2023/01/26 12:45:00;;;;;;;41.37;20.00;;;1.00;1.00;;;;;;10515377;28;20186;-79
2023/01/26 12:50:36;;;;;;;45.70;21.53;;;1.00;1.00;;;;;;10481247;28;20281;-79
2023/01/26 12:56:12;;;;;;;41.53;20.20;;;1.00;1.00;;;;;;10472216;28;20234;-80
2023/01/26 13:01:39;;;;;;;43.50;19.90;;;0.90;1.00;;;;;;10473201;28;20218;-77
2023/01/26 13:07:26;;;;;;;37.93;19.50;;;0.90;1.00;;;;;;10470233;28;20218;-77
2023/01/26 13:12:49;;;;;;;38.97;20.43;;;0.90;1.00;;;;;;10472768;28;20247;-77
2023/01/26 13:18:16;;;;;;;51.10;24.40;;;0.90;1.00;;;;;;10472769;28;20215;-76
2023/01/26 13:23:44;;;;;;;42.73;20.87;;;1.00;1.00;;;;;;10516357;28;20203;-76
2023/01/26 13:29:34;;;;;;;50.77;23.93;;;1.00;1.00;;;;;;10495866;28;20211;-74
2023/01/26 13:34:59;;;;;;;56.87;25.60;;;1.00;1.00;;;;;;10479043;28;20224;-73
2023/01/26 13:40:50;;;;;;;44.57;21.03;;;1.00;1.00;;;;;;10448443;28;20262;-78
2023/01/26 13:46:14;;;;;;;58.97;27.93;;;0.90;1.00;;;;;;10478850;28;20492;-76
2023/01/26 13:51:41;;;;;;;63.27;29.53;;;0.90;1.00;;;;;;10479079;28;20579;-77
2023/01/26 13:57:05;;;;;;;60.77;27.43;;;1.00;1.00;;;;;;10478299;28;20316;-76
2023/01/26 14:02:32;;;;;;;54.70;24.57;;;1.00;1.00;;;;;;10478696;28;20222;-77
2023/01/26 14:07:54;;;;;;;53.03;24.07;;;1.00;1.00;;;;;;10451797;28;20210;-80
2023/01/26 14:13:35;;;;;;;51.27;23.17;;;1.00;1.00;;;;;;10513273;28;20201;-77
2023/01/26 14:19:17;;;;;;;46.10;21.80;;;1.00;1.00;;;;;;10478527;28;20517;-77
2023/01/26 14:24:40;;;;;;;64.07;25.43;;;1.00;8.90;;;;;;10490968;28;20205;-78
2023/01/26 14:30:07;;;;;;;58.30;28.67;;;0.80;20.70;;;;;;10472427;28;20221;-78
2023/01/26 14:35:29;;;;;;;49.83;22.93;;;0.90;23.20;;;;;;10480404;28;20213;-78
2023/01/26 14:40:52;;;;;;;54.10;23.93;;;0.90;33.60;;;;;;10519450;28;20238;-78
2023/01/26 14:46:17;;;;;;;50.80;22.90;;;1.00;26.00;;;;;;10486089;28;20211;-77
2023/01/26 14:51:39;;;;;;;49.33;21.60;;;0.90;37.80;;;;;;10451701;28;20209;-77
2023/01/26 14:57:05;;;;;;;47.17;22.47;;;0.90;46.00;;;;;;10435330;28;20251;-77
2023/01/26 15:02:36;;;;;;;131.10;51.17;;;0.90;37.70;;;;;;10449165;28;20227;-82
2023/01/26 15:08:04;;;;;;;74.13;33.17;;;0.80;53.80;;;;;;10475936;28;20516;-79
2023/01/26 15:13:30;;;;;;;53.90;24.70;;;0.90;67.00;;;;;;10477070;28;20214;-77
2023/01/26 15:19:05;;;;;;;51.80;23.47;;;0.90;53.60;;;;;;10480412;28;20247;-78
2023/01/26 15:24:26;;;;;;;45.63;21.60;;;0.90;56.20;;;;;;10477031;28;20199;-84
2023/01/26 15:29:47;;;;;;;42.00;21.33;;;0.90;58.60;;;;;;10446649;28;20215;-83
2023/01/26 15:35:23;;;;;;;70.97;32.77;;;0.90;58.10;;;;;;10474850;28;20210;-80
2023/01/26 15:40:44;;;;;;;49.07;22.47;;;0.90;62.80;;;;;;10473462;28;20422;-77
2023/01/26 15:46:05;;;;;;;51.63;22.70;;;0.90;56.10;;;;;;10476218;28;20553;-76
2023/01/26 15:51:26;;;;;;;47.87;21.47;;;1.00;67.90;;;;;;10471449;28;20227;-78
2023/01/26 15:56:47;;;;;;;41.53;20.37;;;0.90;71.50;;;;;;10473735;28;20611;-77
2023/01/26 16:02:17;;;;;;;46.70;20.40;;;0.80;77.80;;;;;;10475001;28;20220;-78
2023/01/26 16:07:38;;;;;;;46.80;21.30;;;0.80;93.90;;;;;;10492061;28;20390;-80
2023/01/26 16:12:59;;;;;;;41.33;20.57;;;0.90;87.60;;;;;;10516715;28;20200;-81
2023/01/26 16:18:20;;;;;;;48.17;23.07;;;0.90;90.00;;;;;;10505410;28;20522;-80
2023/01/26 16:23:41;;;;;;;48.40;22.90;;;1.00;83.50;;;;;;10476363;28;20227;-77
2023/01/26 16:29:03;;;;;;;48.80;23.20;;;0.90;84.50;;;;;;10453305;28;20285;-80
2023/01/26 16:34:24;;;;;;;48.07;20.87;;;0.90;82.20;;;;;;10479456;28;20183;-78
2023/01/26 16:39:45;;;;;;;45.90;21.70;;;0.90;99.20;;;;;;10477341;28;20227;-78
2023/01/26 16:45:12;;;;;;;44.30;21.07;;;0.90;99.90;;;;;;10478890;28;20190;-76
2023/01/26 16:50:33;;;;;;;46.27;20.73;;;0.90;89.40;;;;;;10476689;28;20221;-78
2023/01/26 16:55:54;;;;;;;46.80;21.03;;;0.90;77.10;;;;;;10477123;28;20276;-78
2023/01/26 17:01:30;;;;;;;56.00;27.13;;;0.90;87.20;;;;;;10477378;28;20490;-80
2023/01/26 17:06:52;;;;;;;79.67;39.17;;;0.90;79.90;;;;;;10485601;28;20251;-80
2023/01/26 17:12:13;;;;;;;67.77;36.67;;;0.90;90.90;;;;;;10518628;28;20193;-80
2023/01/26 17:17:34;;;;;;;72.27;35.53;;;0.90;83.40;;;;;;10465688;28;20261;-80
2023/01/26 17:22:54;;;;;;;61.53;31.67;;;0.90;92.80;;;;;;10466065;28;20216;-80
2023/01/26 17:28:16;;;;;;;61.77;29.40;;;0.90;91.90;;;;;;10477006;28;20201;-81
2023/01/26 17:33:37;;;;;;;69.77;32.87;;;0.90;90.50;;;;;;10477734;28;20186;-80
2023/01/26 17:38:58;;;;;;;69.77;31.13;;;0.90;96.30;;;;;;10475283;28;20230;-80
2023/01/26 17:44:19;;;;;;;62.83;29.30;;;0.90;90.40;;;;;;10473213;28;20199;-81
2023/01/26 17:49:40;;;;;;;54.63;27.33;;;0.90;80.40;;;;;;10477484;28;20187;-79
2023/01/26 17:55:04;;;;;;;52.63;24.67;;;1.00;76.60;;;;;;10476636;28;20596;-77
2023/01/26 18:00:25;;;;;;;52.77;23.73;;;1.00;77.30;;;;;;10474623;28;20232;-78
2023/01/26 18:05:50;;;;;;;44.90;21.03;;;1.00;83.70;;;;;;10478164;28;20509;-78
2023/01/26 18:11:13;;;;;;;48.37;22.43;;;1.00;90.40;;;;;;10488825;28;20232;-81
2023/01/26 18:16:35;;;;;;;53.33;24.33;;;1.00;94.70;;;;;;10491177;28;20199;-79
2023/01/26 18:21:56;;;;;;;54.10;23.83;;;1.00;83.00;;;;;;10484292;28;20195;-80
2023/01/26 18:27:17;;;;;;;51.27;22.70;;;1.00;90.90;;;;;;10477338;28;20196;-77
2023/01/26 18:32:39;;;;;;;47.67;22.10;;;0.90;87.70;;;;;;10472594;28;20204;-79
2023/01/26 18:38:00;;;;;;;45.57;21.83;;;0.90;98.50;;;;;;10442294;28;20220;-77
2023/01/26 18:43:21;;;;;;;51.77;25.97;;;1.00;93.80;;;;;;10444432;28;20202;-78
2023/01/26 18:48:42;;;;;;;46.30;22.50;;;1.00;92.10;;;;;;10470728;28;20208;-78
2023/01/26 18:54:04;;;;;;;47.87;23.27;;;1.00;91.30;;;;;;10482005;28;20452;-78
2023/01/26 18:59:25;;;;;;;43.97;22.47;;;1.00;95.80;;;;;;10481599;28;20321;-74
2023/01/26 19:04:46;;;;;;;45.97;22.73;;;1.00;95.60;;;;;;10479724;28;20199;-79
2023/01/26 19:10:08;;;;;;;47.23;22.60;;;1.10;95.50;;;;;;10481886;28;20194;-79
2023/01/26 19:15:30;;;;;;;42.70;20.77;;;1.10;92.30;;;;;;10469281;28;20390;-82
2023/01/26 19:20:59;;;;;;;44.67;20.80;;;1.10;92.60;;;;;;10459902;28;20302;-81
2023/01/26 19:26:24;;;;;;;47.73;24.07;;;1.10;86.00;;;;;;10457503;28;20204;-81
2023/01/26 19:31:45;;;;;;;48.47;24.30;;;1.10;84.30;;;;;;10481648;28;20238;-80
2023/01/26 19:37:06;;;;;;;47.30;22.77;;;1.10;87.70;;;;;;10443159;28;20208;-81
2023/01/26 19:42:27;;;;;;;42.07;21.87;;;1.10;82.70;;;;;;10439873;28;20200;-80
2023/01/26 19:47:48;;;;;;;46.53;23.40;;;1.00;83.40;;;;;;10444418;28;20258;-81
2023/01/26 19:53:10;;;;;;;43.10;22.03;;;1.10;93.10;;;;;;10478664;28;20234;-80
2023/01/26 19:58:30;;;;;;;45.50;23.27;;;1.10;88.00;;;;;;10480164;28;20487;-81
2023/01/26 20:03:53;;;;;;;38.20;20.00;;;1.10;76.80;;;;;;10480008;28;20213;-81
2023/01/26 20:09:16;;;;;;;39.67;20.37;;;1.10;90.60;;;;;;10483462;28;20393;-80
2023/01/26 20:14:38;;;;;;;47.47;23.63;;;1.10;94.30;;;;;;10489793;28;20191;-80
2023/01/26 20:19:59;;;;;;;54.20;26.30;;;1.20;82.20;;;;;;10511445;28;20272;-80
2023/01/26 20:25:20;;;;;;;50.33;27.63;;;1.20;84.70;;;;;;10505872;28;20218;-81
2023/01/26 20:30:41;;;;;;;49.83;23.47;;;1.20;75.80;;;;;;10477857;28;20495;-80
2023/01/26 20:36:11;;;;;;;51.63;24.50;;;1.20;75.40;;;;;;10479496;28;20188;-79
2023/01/26 20:41:32;;;;;;;47.60;22.27;;;1.20;85.10;;;;;;10479211;28;20226;-80
2023/01/26 20:46:53;;;;;;;44.33;21.83;;;1.20;72.10;;;;;;10481452;28;20240;-80
2023/01/26 20:52:16;;;;;;;43.57;22.23;;;1.20;87.30;;;;;;10477900;28;20200;-81
2023/01/26 20:57:37;;;;;;;40.33;21.33;;;1.20;90.90;;;;;;10478354;28;20457;-80
2023/01/26 21:02:58;;;;;;;40.33;21.27;;;1.20;95.20;;;;;;10476665;28;20202;-79
2023/01/26 21:08:18;;;;;;;49.27;24.23;;;1.20;82.10;;;;;;10477306;28;20195;-77
2023/01/26 21:13:41;;;;;;;47.63;22.30;;;1.20;95.20;;;;;;10468557;28;20279;-80
2023/01/26 21:19:01;;;;;;;47.67;23.67;;;1.20;91.40;;;;;;10501089;28;20246;-80
2023/01/26 21:24:23;;;;;;;47.47;23.13;;;1.20;96.70;;;;;;10519595;28;20215;-80
2023/01/26 21:29:43;;;;;;;52.40;23.80;;;1.10;96.00;;;;;;10487576;28;20274;-80
2023/01/26 21:35:05;;;;;;;46.20;22.67;;;1.20;98.70;;;;;;10476246;28;20253;-80
2023/01/26 21:40:26;;;;;;;45.37;23.80;;;1.20;95.90;;;;;;10480281;28;20413;-80
2023/01/26 21:45:53;;;;;;;36.87;19.73;;;1.20;90.70;;;;;;10482961;28;20228;-80
2023/01/26 21:56:54;;;;;;;37.23;19.13;;;1.20;93.70;;;;;;10443831;28;20301;-78
2023/01/26 22:02:15;;;;;;;30.77;16.23;;;1.20;94.20;;;;;;10447167;28;20406;-80
2023/01/26 22:07:37;;;;;;;27.77;14.67;;;1.20;96.20;;;;;;10484332;28;20541;-80
2023/01/26 22:12:57;;;;;;;29.33;15.93;;;1.20;99.90;;;;;;10480971;28;20200;-80
2023/01/26 22:18:19;;;;;;;32.53;16.43;;;1.20;99.90;;;;;;10487096;28;20226;-81
2023/01/26 22:23:40;;;;;;;29.30;16.43;;;1.20;99.90;;;;;;10519387;28;20401;-80
2023/01/26 22:29:02;;;;;;;30.00;15.33;;;1.20;99.90;;;;;;10499853;28;20202;-80
2023/01/26 22:34:24;;;;;;;34.37;17.70;;;1.20;99.90;;;;;;10484118;28;20192;-80
2023/01/26 22:39:47;;;;;;;27.97;15.43;;;1.20;99.90;;;;;;10494862;28;20298;-80
2023/01/26 22:45:09;;;;;;;22.87;13.83;;;1.30;99.90;;;;;;10483335;28;20195;-80
2023/01/26 22:50:30;;;;;;;22.47;12.87;;;1.20;99.90;;;;;;10483359;28;20192;-80
2023/01/26 22:55:51;;;;;;;20.53;12.00;;;1.20;99.90;;;;;;10481710;28;20227;-80
2023/01/26 23:01:14;;;;;;;23.07;12.60;;;1.20;99.90;;;;;;10482884;28;20246;-81
2023/01/26 23:06:35;;;;;;;18.27;11.07;;;1.20;99.90;;;;;;10481219;28;20198;-80
2023/01/26 23:12:00;;;;;;;22.00;12.10;;;1.20;99.90;;;;;;10468088;28;20195;-81
2023/01/26 23:17:21;;;;;;;20.83;12.07;;;1.20;99.90;;;;;;10468705;28;20502;-80
2023/01/26 23:22:42;;;;;;;19.13;11.10;;;1.20;99.90;;;;;;10482439;28;20206;-80
2023/01/26 23:28:04;;;;;;;19.27;10.87;;;1.20;99.90;;;;;;10498739;28;20196;-80
2023/01/26 23:33:26;;;;;;;23.17;11.90;;;1.30;99.90;;;;;;10481979;28;20194;-80
2023/01/26 23:38:48;;;;;;;18.93;10.70;;;1.20;99.90;;;;;;10479906;28;20239;-80
2023/01/26 23:44:10;;;;;;;19.20;10.63;;;1.30;99.90;;;;;;10480078;28;20199;-79
2023/01/26 23:49:31;;;;;;;17.10;10.10;;;1.30;99.90;;;;;;10479609;28;20237;-80
2023/01/26 23:54:53;;;;;;;20.90;11.43;;;1.30;99.90;;;;;;10479447;28;20196;-80
